Time;durP1;ratioP1;P1;durP2;ratioP2;P2;SDS_P1;SDS_P2;PMS_P1;PMS_P2;Temp;Humidity;BMP_temperature;BMP_pressure;BME280_temperature;BME280_humidity;BME280_pressure;Samples;Min_cycle;Max_cycle;Signal;HPM_P1;HPM_P2
2021/06/14 00:01:13;;;;;;;5.15;2.70;;;18.00;78.30;;;;;;5041322;28;20269;-74
2021/06/14 00:03:43;;;;;;;3.33;2.05;;;17.90;78.00;;;;;;5041170;28;20310;-75
2021/06/14 00:06:10;;;;;;;2.72;2.00;;;17.90;78.30;;;;;;5041002;28;20299;-75
2021/06/14 00:08:40;;;;;;;3.40;2.40;;;17.90;78.70;;;;;;5040944;28;20658;-75
2021/06/14 00:11:08;;;;;;;3.30;2.13;;;17.90;78.50;;;;;;5041030;28;20207;-74
2021/06/14 00:13:38;;;;;;;2.97;2.00;;;17.90;79.80;;;;;;5040655;28;20710;-75
2021/06/14 00:16:06;;;;;;;2.58;2.13;;;17.80;80.80;;;;;;5040950;28;20207;-75
2021/06/14 00:18:34;;;;;;;3.22;2.25;;;17.70;80.80;;;;;;5040668;28;20204;-75
2021/06/14 00:21:03;;;;;;;2.28;2.08;;;17.70;81.70;;;;;;5040374;28;20653;-74
2021/06/14 00:23:31;;;;;;;6.95;3.17;;;17.70;81.90;;;;;;5040810;28;20302;-75
2021/06/14 00:26:01;;;;;;;3.22;2.28;;;17.70;82.90;;;;;;5040701;28;20741;-75
2021/06/14 00:28:28;;;;;;;2.53;2.15;;;17.60;83.00;;;;;;5040861;28;20625;-74
2021/06/14 00:30:57;;;;;;;4.80;2.53;;;17.60;82.70;;;;;;5040704;28;20228;-75
2021/06/14 00:33:24;;;;;;;3.58;3.00;;;17.60;82.30;;;;;;5041400;28;20310;-75
2021/06/14 00:35:51;;;;;;;2.75;1.90;;;17.60;82.50;;;;;;5041251;28;20292;-75
2021/06/14 00:38:18;;;;;;;3.30;2.63;;;17.60;83.30;;;;;;5040867;28;20298;-75
2021/06/14 00:40:45;;;;;;;3.60;2.40;;;17.50;84.40;;;;;;5040153;28;20645;-74
2021/06/14 00:43:13;;;;;;;2.50;2.22;;;17.50;84.00;;;;;;5039959;28;20311;-75
2021/06/14 00:45:41;;;;;;;3.55;2.30;;;17.50;85.00;;;;;;5039929;28;20231;-74
2021/06/14 00:48:10;;;;;;;3.55;2.22;;;17.40;85.30;;;;;;5039753;28;20387;-75
2021/06/14 00:50:40;;;;;;;3.53;2.50;;;17.40;85.10;;;;;;5039903;28;20294;-74
2021/06/14 00:53:10;;;;;;;4.90;2.70;;;17.20;85.20;;;;;;5040459;28;20313;-75
2021/06/14 00:55:37;;;;;;;2.20;2.00;;;17.20;86.50;;;;;;5040489;28;20298;-75
2021/06/14 00:58:05;;;;;;;4.80;2.58;;;17.20;86.70;;;;;;5040905;28;20725;-75
2021/06/14 01:00:32;;;;;;;6.63;2.55;;;17.20;87.10;;;;;;5041279;28;20204;-74
2021/06/14 01:02:59;;;;;;;2.60;2.05;;;17.20;87.20;;;;;;5041091;28;20250;-75
2021/06/14 01:05:30;;;;;;;5.07;2.50;;;17.20;87.80;;;;;;5041291;28;20213;-75
2021/06/14 01:07:57;;;;;;;3.20;2.10;;;17.20;87.30;;;;;;5041414;28;20231;-75
2021/06/14 01:10:24;;;;;;;2.50;2.22;;;17.20;87.50;;;;;;5035699;28;20332;-74
2021/06/14 01:13:07;;;;;;;2.78;2.58;;;17.10;87.80;;;;;;5036360;28;20732;-75
2021/06/14 01:15:41;;;;;;;2.67;2.10;;;17.10;88.50;;;;;;5036896;28;20199;-75
2021/06/14 01:18:12;;;;;;;2.83;2.33;;;17.20;88.60;;;;;;5036462;28;20282;-75
2021/06/14 01:20:59;;;;;;;2.50;2.00;;;17.10;88.70;;;;;;5036270;28;20302;-75
2021/06/14 01:23:44;;;;;;;4.57;2.60;;;17.10;88.90;;;;;;5036520;28;20307;-75
2021/06/14 01:26:15;;;;;;;2.90;2.40;;;17.00;88.80;;;;;;5036697;28;20562;-74
2021/06/14 01:28:44;;;;;;;4.13;2.20;;;16.90;89.60;;;;;;5036992;28;20261;-75
2021/06/14 01:31:11;;;;;;;2.15;1.95;;;16.90;90.10;;;;;;5036929;28;20311;-75
2021/06/14 01:33:39;;;;;;;3.08;2.45;;;16.80;90.30;;;;;;5036987;28;20238;-75
2021/06/14 01:36:09;;;;;;;2.40;2.10;;;16.90;89.90;;;;;;5036344;28;20211;-75
2021/06/14 01:38:37;;;;;;;3.63;2.28;;;16.90;90.80;;;;;;5036036;28;20286;-75
2021/06/14 01:41:07;;;;;;;3.95;2.13;;;16.80;90.40;;;;;;5035880;28;20685;-75
2021/06/14 01:43:36;;;;;;;2.95;1.90;;;16.80;90.70;;;;;;5035846;28;20776;-75
2021/06/14 01:46:07;;;;;;;3.35;2.58;;;16.80;91.10;;;;;;5035934;28;20212;-75
2021/06/14 01:48:36;;;;;;;2.40;2.00;;;16.70;90.70;;;;;;5036099;28;20217;-75
2021/06/14 01:51:03;;;;;;;3.85;2.15;;;16.70;91.30;;;;;;5035652;28;20298;-75
2021/06/14 01:53:31;;;;;;;4.05;2.40;;;16.70;91.50;;;;;;5036202;28;20313;-75
2021/06/14 01:55:59;;;;;;;2.83;2.58;;;16.70;91.50;;;;;;5035931;28;20211;-76
2021/06/14 01:58:26;;;;;;;2.03;1.92;;;16.70;91.80;;;;;;5035852;28;20218;-75
2021/06/14 02:00:54;;;;;;;2.53;2.17;;;16.70;92.00;;;;;;5035309;28;20214;-75
2021/06/14 02:03:23;;;;;;;3.33;2.50;;;16.70;92.20;;;;;;5035333;28;20231;-75
2021/06/14 02:05:50;;;;;;;2.35;2.10;;;16.70;92.10;;;;;;5035984;28;20200;-75
2021/06/14 02:08:20;;;;;;;2.00;1.80;;;16.60;92.00;;;;;;5035473;28;20298;-75
2021/06/14 02:10:48;;;;;;;3.50;2.63;;;16.60;92.10;;;;;;5035185;28;20688;-75
2021/06/14 02:13:16;;;;;;;2.10;1.95;;;16.50;92.40;;;;;;5035298;28;20310;-75
2021/06/14 02:15:43;;;;;;;3.33;2.40;;;16.50;93.10;;;;;;5035075;28;20302;-75
2021/06/14 02:18:12;;;;;;;2.25;2.05;;;16.50;93.30;;;;;;5035180;28;20293;-75
2021/06/14 02:20:42;;;;;;;2.33;2.13;;;16.40;93.00;;;;;;5035013;28;20214;-75
2021/06/14 02:23:11;;;;;;;2.85;2.35;;;16.40;93.30;;;;;;5035360;28;20239;-75
2021/06/14 02:25:38;;;;;;;4.28;2.60;;;16.40;93.40;;;;;;5035226;28;20219;-75
2021/06/14 02:28:05;;;;;;;4.72;2.90;;;16.40;93.60;;;;;;5035136;28;20206;-75
2021/06/14 02:30:32;;;;;;;3.00;1.90;;;16.40;93.30;;;;;;5035452;28;20669;-74
2021/06/14 02:32:59;;;;;;;2.15;1.98;;;16.30;93.40;;;;;;5035610;28;20757;-75
2021/06/14 02:35:27;;;;;;;2.35;2.10;;;16.30;93.40;;;;;;5036055;28;20740;-75
2021/06/14 02:37:59;;;;;;;2.92;2.63;;;16.30;94.10;;;;;;5036386;28;20202;-75
2021/06/14 02:40:29;;;;;;;2.63;2.20;;;16.20;94.40;;;;;;5035488;28;20207;-74
2021/06/14 02:42:59;;;;;;;5.95;2.60;;;16.20;94.10;;;;;;5035378;28;20659;-75
2021/06/14 02:45:28;;;;;;;2.33;2.13;;;16.30;94.10;;;;;;5035370;28;20305;-74
2021/06/14 02:47:56;;;;;;;4.97;2.30;;;16.20;94.00;;;;;;5035022;28;20207;-75
2021/06/14 02:50:24;;;;;;;2.72;2.45;;;16.20;94.10;;;;;;5036124;28;20233;-74
2021/06/14 02:52:53;;;;;;;3.25;2.30;;;16.20;94.50;;;;;;5035013;28;20325;-75
2021/06/14 02:55:29;;;;;;;2.60;2.10;;;16.10;95.30;;;;;;5035161;28;20252;-74
2021/06/14 02:57:58;;;;;;;3.60;2.38;;;15.90;96.10;;;;;;5034516;28;20285;-75
2021/06/14 03:00:28;;;;;;;3.20;2.90;;;15.90;96.90;;;;;;5034344;28;20294;-74
2021/06/14 03:02:58;;;;;;;3.63;2.50;;;15.90;97.40;;;;;;5034339;28;20238;-75
2021/06/14 03:05:25;;;;;;;3.55;2.83;;;16.00;97.60;;;;;;5034504;28;20291;-75
2021/06/14 03:07:53;;;;;;;3.10;2.22;;;15.90;97.60;;;;;;5034785;28;20258;-75
2021/06/14 03:10:21;;;;;;;3.13;2.50;;;15.90;97.30;;;;;;5034418;28;20201;-74
2021/06/14 03:12:48;;;;;;;2.97;2.50;;;15.90;97.20;;;;;;5033934;28;20209;-75
2021/06/14 03:15:15;;;;;;;2.95;2.47;;;16.00;97.40;;;;;;5034490;28;20290;-75
2021/06/14 03:17:44;;;;;;;2.35;1.90;;;15.90;97.30;;;;;;5034475;28;20299;-75
2021/06/14 03:20:12;;;;;;;2.28;2.08;;;16.00;97.20;;;;;;5036013;28;20213;-74
2021/06/14 03:22:39;;;;;;;3.03;2.60;;;15.90;97.00;;;;;;5035376;28;20230;-75
2021/06/14 03:25:07;;;;;;;2.85;2.30;;;15.90;97.50;;;;;;5035077;28;20246;-74
2021/06/14 03:27:36;;;;;;;2.97;2.67;;;15.90;97.90;;;;;;5035234;28;20241;-75
2021/06/14 03:30:04;;;;;;;3.75;2.88;;;15.90;98.40;;;;;;5034685;28;20292;-75
2021/06/14 03:32:31;;;;;;;3.58;2.35;;;15.80;98.70;;;;;;5033409;28;20210;-74
2021/06/14 03:35:00;;;;;;;3.65;2.50;;;15.90;99.10;;;;;;5033674;28;20202;-75
2021/06/14 03:37:27;;;;;;;3.30;3.00;;;15.90;98.80;;;;;;5034254;28;20317;-74
2021/06/14 03:39:53;;;;;;;3.80;2.30;;;15.90;98.60;;;;;;5033817;28;20292;-74
2021/06/14 03:42:22;;;;;;;3.33;2.50;;;15.90;99.10;;;;;;5033861;28;20719;-74
2021/06/14 03:44:50;;;;;;;4.70;2.90;;;15.90;99.50;;;;;;5034328;28;20237;-74
2021/06/14 03:47:17;;;;;;;3.67;2.13;;;15.90;99.30;;;;;;5034150;28;20205;-74
2021/06/14 03:49:44;;;;;;;4.00;2.97;;;15.90;99.70;;;;;;5034289;28;20207;-75
2021/06/14 03:52:10;;;;;;;3.13;2.78;;;15.90;99.90;;;;;;5034080;28;20728;-75
2021/06/14 03:54:37;;;;;;;2.67;2.33;;;15.90;99.90;;;;;;5034310;28;20230;-75
2021/06/14 03:57:05;;;;;;;3.22;2.53;;;15.80;99.40;;;;;;5034332;28;20635;-75
2021/06/14 03:59:32;;;;;;;2.65;2.30;;;15.80;99.60;;;;;;5033930;28;20298;-75
2021/06/14 04:02:00;;;;;;;3.33;2.70;;;15.80;99.90;;;;;;5034011;28;20587;-75
2021/06/14 04:04:41;;;;;;;3.75;2.33;;;15.80;99.90;;;;;;5034243;28;20246;-75
2021/06/14 04:07:08;;;;;;;3.30;2.28;;;15.80;99.90;;;;;;5034244;28;20204;-74
2021/06/14 04:09:35;;;;;;;7.75;2.50;;;15.90;99.90;;;;;;5034173;28;20202;-75
2021/06/14 04:12:03;;;;;;;4.20;2.85;;;15.80;99.90;;;;;;5034563;28;20606;-75
2021/06/14 04:14:30;;;;;;;4.93;2.90;;;15.80;99.90;;;;;;5034853;28;20650;-75
2021/06/14 04:16:56;;;;;;;5.15;3.08;;;15.50;99.90;;;;;;5035153;28;20247;-75
2021/06/14 04:19:25;;;;;;;2.67;2.35;;;15.50;99.90;;;;;;5034965;28;20314;-75
2021/06/14 04:21:51;;;;;;;4.63;2.65;;;15.60;99.90;;;;;;5033696;28;20297;-74
2021/06/14 04:24:18;;;;;;;5.75;3.00;;;15.50;99.90;;;;;;5034722;28;20253;-75
2021/06/14 04:26:45;;;;;;;3.97;2.75;;;15.40;99.90;;;;;;5034186;28;20210;-75
2021/06/14 04:29:12;;;;;;;4.07;2.55;;;15.40;99.90;;;;;;5034239;28;20607;-75
2021/06/14 04:31:39;;;;;;;3.00;2.70;;;15.20;99.90;;;;;;5034063;28;20222;-75
2021/06/14 04:34:06;;;;;;;5.10;3.05;;;15.20;99.90;;;;;;5033902;28;20315;-74
2021/06/14 04:36:34;;;;;;;6.53;3.67;;;15.10;99.90;;;;;;5034273;28;20260;-75
2021/06/14 04:39:01;;;;;;;4.70;3.30;;;15.20;99.90;;;;;;5034116;28;20668;-75
2021/06/14 04:41:28;;;;;;;4.45;3.40;;;15.30;99.90;;;;;;5034030;28;20682;-74
2021/06/14 04:43:56;;;;;;;4.25;2.80;;;15.40;99.90;;;;;;5033848;28;20232;-74
2021/06/14 04:46:23;;;;;;;3.90;2.90;;;15.50;99.90;;;;;;5037820;28;20623;-75
2021/06/14 04:48:49;;;;;;;4.40;3.33;;;15.60;99.90;;;;;;5037607;28;20275;-74
2021/06/14 04:51:16;;;;;;;6.00;4.15;;;15.70;99.90;;;;;;5037184;28;20207;-74
2021/06/14 04:53:45;;;;;;;4.32;3.15;;;15.80;99.90;;;;;;5037215;28;20321;-75
2021/06/14 04:56:12;;;;;;;6.18;3.45;;;15.80;99.90;;;;;;5037380;28;20209;-75
2021/06/14 04:58:38;;;;;;;4.78;3.92;;;15.90;99.90;;;;;;5037163;28;20214;-74
2021/06/14 05:01:05;;;;;;;5.72;3.25;;;15.90;99.90;;;;;;5037208;28;20300;-74
2021/06/14 05:03:32;;;;;;;7.15;3.92;;;15.90;99.90;;;;;;5037232;28;20230;-74
2021/06/14 05:05:59;;;;;;;3.60;3.10;;;15.90;99.90;;;;;;5037119;28;20211;-74
2021/06/14 05:08:26;;;;;;;3.65;2.85;;;16.00;99.90;;;;;;5037082;28;20386;-74
2021/06/14 05:10:54;;;;;;;4.85;3.70;;;16.00;99.90;;;;;;5036776;28;20233;-74
2021/06/14 05:13:21;;;;;;;4.43;3.05;;;16.10;99.90;;;;;;5037084;28;20696;-74
2021/06/14 05:15:47;;;;;;;4.72;3.45;;;16.10;99.90;;;;;;5036602;28;20204;-75
2021/06/14 05:18:14;;;;;;;5.30;3.38;;;16.10;99.90;;;;;;5037238;28;20301;-74
2021/06/14 05:20:42;;;;;;;4.72;3.50;;;16.10;99.90;;;;;;5036707;28;20208;-74
2021/06/14 05:23:09;;;;;;;3.60;2.65;;;15.90;99.90;;;;;;5036752;28;20325;-74
2021/06/14 05:25:37;;;;;;;4.82;3.60;;;15.80;99.90;;;;;;5036834;28;20235;-74
2021/06/14 05:28:06;;;;;;;4.78;3.58;;;15.70;99.90;;;;;;5036822;28;20217;-74
2021/06/14 05:30:33;;;;;;;3.95;2.90;;;15.80;99.90;;;;;;5036537;28;20684;-74
2021/06/14 05:33:00;;;;;;;5.70;3.92;;;15.90;99.90;;;;;;5036275;28;20322;-74
2021/06/14 05:35:27;;;;;;;6.00;4.15;;;15.90;99.90;;;;;;5018828;28;20203;-74
2021/06/14 05:37:54;;;;;;;6.30;4.28;;;16.00;99.90;;;;;;5036487;28;20632;-74
2021/06/14 05:40:21;;;;;;;6.60;4.05;;;16.00;99.90;;;;;;5036073;28;20669;-74
2021/06/14 05:42:48;;;;;;;5.97;3.95;;;16.10;99.90;;;;;;5036387;28;20226;-75
2021/06/14 05:45:18;;;;;;;6.07;4.28;;;16.20;99.90;;;;;;5036582;28;20207;-74
2021/06/14 05:47:45;;;;;;;8.45;5.47;;;16.10;99.90;;;;;;5036589;28;20240;-74
2021/06/14 05:50:13;;;;;;;5.88;4.53;;;16.20;99.90;;;;;;5036082;28;20203;-74
2021/06/14 05:52:40;;;;;;;7.93;4.35;;;16.30;99.90;;;;;;5036472;28;20299;-75
2021/06/14 05:55:08;;;;;;;6.30;4.47;;;16.30;99.90;;;;;;5035984;28;20207;-75
2021/06/14 05:57:35;;;;;;;6.97;4.55;;;16.40;99.90;;;;;;5036289;28;20298;-75
2021/06/14 06:00:02;;;;;;;6.18;4.13;;;16.50;99.90;;;;;;5035789;28;20684;-74
2021/06/14 06:02:30;;;;;;;6.45;4.60;;;16.50;99.90;;;;;;5036073;28;20251;-75
2021/06/14 06:04:57;;;;;;;5.78;4.03;;;16.50;99.90;;;;;;5036256;28;20238;-75
2021/06/14 06:07:24;;;;;;;6.95;4.20;;;16.50;99.90;;;;;;5036311;28;20207;-75
2021/06/14 06:09:52;;;;;;;6.10;3.92;;;16.60;99.90;;;;;;5036013;28;20246;-74
2021/06/14 06:12:19;;;;;;;5.03;3.60;;;16.70;99.90;;;;;;5036275;28;20230;-75
2021/06/14 06:14:46;;;;;;;5.93;4.43;;;16.90;99.90;;;;;;5036084;28;20593;-75
2021/06/14 06:17:13;;;;;;;4.15;3.22;;;17.00;99.90;;;;;;5036808;28;20203;-75
2021/06/14 06:19:41;;;;;;;4.70;3.40;;;17.10;99.90;;;;;;5036840;28;20200;-75
2021/06/14 06:22:08;;;;;;;5.22;3.80;;;17.10;99.90;;;;;;5036811;28;20294;-74
2021/06/14 06:24:35;;;;;;;5.60;3.53;;;17.20;99.90;;;;;;5036733;28;20728;-75
2021/06/14 06:27:02;;;;;;;3.60;3.10;;;17.20;99.90;;;;;;5036246;28;20410;-75
2021/06/14 06:29:28;;;;;;;4.55;3.50;;;17.30;99.90;;;;;;5035969;28;20210;-74
2021/06/14 06:31:56;;;;;;;3.92;3.10;;;17.40;99.90;;;;;;5035971;28;20284;-75
2021/06/14 06:34:23;;;;;;;4.80;2.92;;;17.50;99.90;;;;;;5036492;28;20220;-74
2021/06/14 06:36:51;;;;;;;5.20;3.25;;;17.50;99.90;;;;;;5036701;28;20303;-75
2021/06/14 06:39:18;;;;;;;4.07;3.05;;;17.60;99.90;;;;;;5036825;28;20234;-75
2021/06/14 06:41:45;;;;;;;7.93;3.85;;;17.70;99.90;;;;;;5036792;28;20633;-74
2021/06/14 06:44:12;;;;;;;4.93;3.67;;;17.90;99.90;;;;;;5035994;28;20319;-74
2021/06/14 06:46:39;;;;;;;6.47;3.10;;;18.10;99.30;;;;;;5036751;28;20231;-75
2021/06/14 06:49:06;;;;;;;3.70;2.78;;;18.30;99.00;;;;;;5037066;28;20210;-75
2021/06/14 06:51:33;;;;;;;3.28;2.28;;;18.50;98.90;;;;;;5036600;28;20693;-75
2021/06/14 06:54:14;;;;;;;4.50;3.40;;;18.60;97.10;;;;;;5036726;28;20220;-75
2021/06/14 06:56:45;;;;;;;2.88;2.60;;;18.80;98.20;;;;;;5036564;28;20322;-75
2021/06/14 06:59:13;;;;;;;3.25;2.95;;;19.00;97.00;;;;;;5036949;28;20208;-75
2021/06/14 07:01:40;;;;;;;3.80;2.80;;;19.10;95.80;;;;;;5036558;28;20204;-75
2021/06/14 07:04:08;;;;;;;6.00;3.20;;;19.40;94.40;;;;;;5036601;28;20493;-75
2021/06/14 07:06:35;;;;;;;2.53;2.33;;;19.50;95.40;;;;;;5036073;28;20455;-74
2021/06/14 07:09:05;;;;;;;3.47;2.40;;;19.60;92.30;;;;;;5035896;28;20447;-75
2021/06/14 07:11:32;;;;;;;3.10;2.80;;;19.70;93.50;;;;;;5035473;28;20303;-75
2021/06/14 07:13:59;;;;;;;3.37;2.70;;;20.00;93.00;;;;;;5035614;28;20463;-75
2021/06/14 07:16:27;;;;;;;3.03;2.70;;;20.20;92.90;;;;;;5036109;28;20531;-75
2021/06/14 07:18:55;;;;;;;3.00;2.43;;;20.30;92.50;;;;;;5036311;28;20536;-75
2021/06/14 07:21:23;;;;;;;3.70;2.77;;;20.40;92.10;;;;;;5036076;28;20892;-74
2021/06/14 07:23:50;;;;;;;3.30;3.00;;;20.40;90.00;;;;;;5035924;28;20499;-75
2021/06/14 07:26:18;;;;;;;7.00;5.17;;;20.30;90.40;;;;;;5036339;28;20450;-75
2021/06/14 07:28:45;;;;;;;6.07;3.33;;;20.40;90.80;;;;;;5035399;28;20536;-74
2021/06/14 07:31:12;;;;;;;2.80;2.30;;;20.40;90.40;;;;;;5034922;28;20498;-75
2021/06/14 07:33:40;;;;;;;2.90;2.43;;;20.60;89.10;;;;;;5035356;28;20470;-75
2021/06/14 07:36:08;;;;;;;4.13;2.73;;;20.60;88.90;;;;;;5035209;28;20506;-75
2021/06/14 07:38:36;;;;;;;2.53;2.33;;;20.60;89.40;;;;;;5035404;28;20519;-75
2021/06/14 07:41:03;;;;;;;2.50;2.30;;;20.60;90.70;;;;;;5034826;28;20526;-74
2021/06/14 07:43:31;;;;;;;4.77;2.90;;;20.80;89.30;;;;;;5034633;28;20575;-75
2021/06/14 07:45:59;;;;;;;4.37;2.80;;;21.00;88.00;;;;;;5035182;28;20453;-75
2021/06/14 07:48:25;;;;;;;3.40;2.50;;;21.20;89.40;;;;;;5034657;28;20981;-75
2021/06/14 07:50:54;;;;;;;3.73;2.60;;;21.40;84.90;;;;;;5034877;28;20856;-75
2021/06/14 07:53:22;;;;;;;2.60;2.30;;;22.00;86.50;;;;;;5035157;28;20574;-75
2021/06/14 07:55:49;;;;;;;3.40;3.10;;;22.40;86.70;;;;;;5035042;28;20451;-75
2021/06/14 07:58:16;;;;;;;2.53;2.33;;;22.60;78.60;;;;;;5034996;28;20447;-75
2021/06/14 08:00:44;;;;;;;4.00;3.07;;;23.00;75.50;;;;;;5034962;28;20537;-75
2021/06/14 08:03:11;;;;;;;2.80;2.40;;;23.30;74.70;;;;;;5034838;28;20572;-75
2021/06/14 08:05:39;;;;;;;2.70;2.50;;;23.60;75.80;;;;;;5033895;28;20462;-75
2021/06/14 08:08:06;;;;;;;2.50;2.27;;;24.00;77.70;;;;;;5033789;28;20514;-74
2021/06/14 08:10:33;;;;;;;3.27;2.50;;;24.20;70.40;;;;;;5033597;28;20875;-75
2021/06/14 08:13:02;;;;;;;3.80;2.63;;;24.30;70.50;;;;;;5033472;28;20470;-75
2021/06/14 08:15:30;;;;;;;3.20;2.63;;;24.40;71.90;;;;;;5033937;28;20449;-75
2021/06/14 08:18:05;;;;;;;2.90;2.70;;;24.70;70.70;;;;;;5033817;28;20526;-75
2021/06/14 08:20:35;;;;;;;2.83;2.47;;;25.30;70.20;;;;;;5037466;28;20512;-75
2021/06/14 08:25:46;;;;;;;3.53;3.23;;;26.40;66.20;;;;;;5037682;28;20432;-75
2021/06/14 08:28:13;;;;;;;3.00;2.70;;;26.80;59.00;;;;;;5037526;28;20533;-75
2021/06/14 08:30:40;;;;;;;3.33;3.03;;;27.00;57.30;;;;;;5037263;28;20530;-75
2021/06/14 08:33:08;;;;;;;3.20;2.90;;;26.90;55.90;;;;;;5037313;28;20573;-75
2021/06/14 08:35:35;;;;;;;3.57;2.63;;;26.90;56.20;;;;;;5037370;28;20447;-75
2021/06/14 08:38:03;;;;;;;3.10;2.50;;;27.30;55.20;;;;;;5037481;28;20537;-75
2021/06/14 08:40:33;;;;;;;4.37;3.00;;;27.80;55.00;;;;;;5037166;28;20547;-75
2021/06/14 08:43:03;;;;;;;3.17;2.57;;;28.40;53.80;;;;;;5037296;28;20497;-75
2021/06/14 08:45:31;;;;;;;3.33;3.03;;;28.80;51.20;;;;;;5037279;28;20446;-75
2021/06/14 08:47:59;;;;;;;2.73;2.53;;;28.50;49.60;;;;;;5037131;28;20529;-75
2021/06/14 08:50:28;;;;;;;2.53;2.33;;;28.70;51.70;;;;;;5036995;28;20853;-75
2021/06/14 08:52:55;;;;;;;3.17;2.87;;;29.40;50.50;;;;;;5037042;28;20964;-75
2021/06/14 08:55:22;;;;;;;6.37;3.20;;;30.10;49.80;;;;;;5037076;28;20445;-75
2021/06/14 08:57:50;;;;;;;4.27;2.67;;;30.90;50.20;;;;;;5037273;28;20457;-75
2021/06/14 09:00:20;;;;;;;3.60;2.93;;;32.10;46.80;;;;;;5037017;28;20545;-75
2021/06/14 09:02:47;;;;;;;3.03;2.73;;;33.60;42.30;;;;;;5037146;28;20529;-75
2021/06/14 09:05:16;;;;;;;3.00;2.70;;;34.80;38.50;;;;;;5037257;28;20569;-75
2021/06/14 09:07:44;;;;;;;2.73;2.53;;;35.30;37.10;;;;;;5037014;28;20451;-75
2021/06/14 09:10:23;;;;;;;3.17;2.97;;;35.30;36.60;;;;;;5037004;28;20534;-75
2021/06/14 09:12:50;;;;;;;4.27;2.73;;;35.40;35.40;;;;;;5037082;28;20977;-75
2021/06/14 09:15:17;;;;;;;3.10;2.60;;;35.90;35.20;;;;;;5036985;28;20959;-75
2021/06/14 09:17:53;;;;;;;4.70;2.83;;;36.30;34.60;;;;;;5037237;28;20439;-76
2021/06/14 09:20:20;;;;;;;2.83;2.60;;;37.20;34.10;;;;;;5036732;28;20928;-75
2021/06/14 09:22:48;;;;;;;3.17;2.97;;;38.10;33.10;;;;;;5036834;28;20541;-76
2021/06/14 09:25:18;;;;;;;3.27;3.03;;;39.00;32.10;;;;;;5037014;28;20610;-73
2021/06/14 09:27:46;;;;;;;3.23;2.60;;;38.50;31.90;;;;;;5037264;28;20443;-73
2021/06/14 09:30:19;;;;;;;2.70;2.43;;;38.40;30.90;;;;;;5036099;28;20526;-73
2021/06/14 09:32:51;;;;;;;4.60;3.07;;;39.60;29.80;;;;;;5036748;28;20446;-73
2021/06/14 09:35:20;;;;;;;2.60;2.40;;;39.90;29.50;;;;;;5036769;28;20538;-73
2021/06/14 09:38:00;;;;;;;3.23;2.93;;;40.30;28.90;;;;;;5037444;28;20529;-74
2021/06/14 09:40:29;;;;;;;2.93;2.57;;;40.80;28.20;;;;;;5037593;28;20466;-74
2021/06/14 09:42:56;;;;;;;2.70;2.50;;;41.00;28.10;;;;;;5037575;28;20542;-74
2021/06/14 09:45:24;;;;;;;2.63;2.53;;;41.60;26.90;;;;;;5037615;28;20597;-74
2021/06/14 09:47:54;;;;;;;3.03;2.83;;;41.10;26.60;;;;;;5038221;28;20454;-74
2021/06/14 09:50:26;;;;;;;2.90;2.67;;;40.80;28.40;;;;;;5037555;28;20554;-74
2021/06/14 09:53:03;;;;;;;2.70;2.50;;;41.40;28.10;;;;;;5036723;28;20999;-74
2021/06/14 09:55:31;;;;;;;2.33;2.23;;;42.70;26.90;;;;;;5036926;28;20510;-74
2021/06/14 09:57:58;;;;;;;3.10;2.90;;;43.50;25.80;;;;;;5036902;28;20805;-74
2021/06/14 10:00:26;;;;;;;3.63;2.73;;;43.00;26.70;;;;;;5036430;28;20474;-74
2021/06/14 10:02:58;;;;;;;3.13;2.83;;;42.30;25.50;;;;;;5036251;28;20471;-74
2021/06/14 10:05:25;;;;;;;2.77;2.43;;;41.40;26.30;;;;;;5036390;28;20486;-75
2021/06/14 10:07:54;;;;;;;2.70;2.50;;;42.30;27.00;;;;;;5036608;28;20859;-74
2021/06/14 10:10:22;;;;;;;2.70;2.50;;;42.60;25.40;;;;;;5036525;28;20801;-74
2021/06/14 10:12:52;;;;;;;5.43;2.63;;;42.20;25.90;;;;;;5036374;28;20541;-74
2021/06/14 10:15:29;;;;;;;2.60;2.40;;;42.10;25.50;;;;;;5036382;28;20450;-74
2021/06/14 10:17:56;;;;;;;2.80;2.60;;;42.40;25.20;;;;;;5036521;28;20447;-74
2021/06/14 10:20:26;;;;;;;2.83;2.50;;;41.60;25.80;;;;;;5035675;28;20970;-73
2021/06/14 10:22:55;;;;;;;2.83;2.57;;;39.90;26.40;;;;;;5036018;28;20481;-74
2021/06/14 10:25:25;;;;;;;2.80;2.37;;;38.40;27.70;;;;;;5036144;28;20478;-74
2021/06/14 10:27:53;;;;;;;2.90;2.70;;;37.70;28.70;;;;;;5036095;28;20453;-74
2021/06/14 10:30:23;;;;;;;2.90;2.40;;;36.80;29.00;;;;;;5035530;28;20447;-73
2021/06/14 10:32:51;;;;;;;2.63;2.43;;;36.30;30.00;;;;;;5035329;28;20554;-73
2021/06/14 10:35:20;;;;;;;3.77;3.00;;;35.30;30.60;;;;;;5035819;28;20870;-75
2021/06/14 10:37:48;;;;;;;2.63;2.47;;;34.60;31.70;;;;;;5035708;28;20950;-75
2021/06/14 10:40:17;;;;;;;2.93;2.60;;;33.80;32.70;;;;;;5034813;28;20541;-75
2021/06/14 10:42:45;;;;;;;2.63;2.43;;;33.00;33.40;;;;;;5035250;28;20485;-75
2021/06/14 10:45:15;;;;;;;2.93;2.40;;;32.30;34.40;;;;;;5035426;28;20827;-75
2021/06/14 10:47:45;;;;;;;3.23;2.00;;;31.70;35.50;;;;;;5037217;28;20937;-75
2021/06/14 10:50:15;;;;;;;2.50;2.30;;;31.20;35.70;;;;;;5037335;28;20446;-75
2021/06/14 10:52:43;;;;;;;2.60;2.40;;;30.70;36.00;;;;;;5038172;28;20439;-76
2021/06/14 10:55:12;;;;;;;2.80;2.37;;;30.20;36.80;;;;;;5037933;28;20545;-75
2021/06/14 10:57:40;;;;;;;2.67;2.47;;;29.80;38.00;;;;;;5037886;28;20491;-76
2021/06/14 11:00:22;;;;;;;2.17;2.03;;;29.60;37.80;;;;;;5037435;28;20447;-75
2021/06/14 11:02:54;;;;;;;2.70;2.50;;;29.50;39.70;;;;;;5037290;28;20446;-75
2021/06/14 11:05:32;;;;;;;3.23;2.60;;;29.40;39.00;;;;;;5037135;28;20564;-75
2021/06/14 11:08:11;;;;;;;3.63;2.30;;;29.30;39.60;;;;;;5037182;28;20527;-76
2021/06/14 11:10:38;;;;;;;3.50;3.10;;;29.40;39.70;;;;;;5019614;28;20445;-75
2021/06/14 11:13:09;;;;;;;2.70;2.50;;;29.30;38.70;;;;;;5036956;28;21007;-75
2021/06/14 11:15:38;;;;;;;4.00;2.70;;;29.30;39.90;;;;;;5037355;28;20551;-75
2021/06/14 11:18:07;;;;;;;3.17;2.67;;;29.20;40.00;;;;;;5037440;28;20454;-75
2021/06/14 11:20:39;;;;;;;2.93;2.63;;;29.00;40.10;;;;;;5035203;28;20457;-75
2021/06/14 11:23:06;;;;;;;3.07;2.17;;;29.00;40.50;;;;;;5034359;28;20559;-75
2021/06/14 11:25:42;;;;;;;2.60;2.40;;;29.00;41.10;;;;;;5034418;28;20484;-75
2021/06/14 11:28:11;;;;;;;2.97;2.70;;;29.00;39.00;;;;;;5034303;28;20447;-74
2021/06/14 11:30:42;;;;;;;1.90;1.80;;;28.90;39.40;;;;;;5033892;28;20456;-75
2021/06/14 11:33:12;;;;;;;3.23;2.43;;;29.10;40.50;;;;;;5034143;28;20536;-75
2021/06/14 11:35:39;;;;;;;2.70;2.37;;;29.10;40.10;;;;;;5034350;28;20440;-74
2021/06/14 11:38:18;;;;;;;2.83;2.63;;;29.10;40.30;;;;;;5036204;28;20536;-75
2021/06/14 11:40:52;;;;;;;2.50;2.23;;;29.20;40.00;;;;;;5036162;28;20484;-75
2021/06/14 11:43:20;;;;;;;2.70;2.50;;;29.20;39.20;;;;;;5036782;28;20468;-75
2021/06/14 11:45:49;;;;;;;2.90;2.10;;;29.00;38.80;;;;;;5036558;28;21002;-75
2021/06/14 11:48:22;;;;;;;2.50;2.30;;;28.80;40.20;;;;;;5036200;28;20538;-75
2021/06/14 11:50:50;;;;;;;3.93;2.37;;;28.90;40.10;;;;;;5036393;28;20513;-75
2021/06/14 11:53:17;;;;;;;2.80;2.60;;;28.90;40.30;;;;;;5035664;28;20505;-75
2021/06/14 11:55:45;;;;;;;4.70;2.30;;;29.00;39.20;;;;;;5036331;28;20920;-74
2021/06/14 11:58:13;;;;;;;2.40;2.20;;;29.10;40.70;;;;;;5036362;28;20451;-75
2021/06/14 12:00:42;;;;;;;2.60;2.23;;;29.20;41.30;;;;;;5035516;28;20509;-75
2021/06/14 12:03:19;;;;;;;3.03;2.73;;;29.20;38.90;;;;;;5035515;28;20532;-74
2021/06/14 12:05:47;;;;;;;2.20;2.10;;;29.00;39.20;;;;;;5036178;28;20558;-75
2021/06/14 12:08:19;;;;;;;2.40;2.20;;;29.00;40.60;;;;;;5036108;28;20451;-75
2021/06/14 12:10:46;;;;;;;2.60;2.40;;;29.10;40.00;;;;;;5036349;28;20442;-74
2021/06/14 12:13:16;;;;;;;3.30;3.00;;;29.20;39.00;;;;;;5036231;28;20492;-75
2021/06/14 12:15:44;;;;;;;2.60;2.40;;;29.20;40.00;;;;;;5035951;28;20439;-75
2021/06/14 12:18:13;;;;;;;2.73;2.17;;;29.30;40.20;;;;;;5035439;28;20472;-75
2021/06/14 12:20:44;;;;;;;2.37;2.17;;;29.30;38.60;;;;;;5035122;28;20443;-74
2021/06/14 12:23:14;;;;;;;2.83;2.60;;;29.40;40.20;;;;;;5035533;28;20479;-75
2021/06/14 12:25:42;;;;;;;2.00;1.90;;;29.50;39.90;;;;;;5035735;28;20494;-75
2021/06/14 12:28:13;;;;;;;2.50;2.30;;;29.50;39.50;;;;;;5036120;28;20462;-75
2021/06/14 12:30:41;;;;;;;2.50;2.07;;;29.60;38.80;;;;;;5035952;28;20438;-75
2021/06/14 12:33:10;;;;;;;3.10;2.50;;;29.60;39.00;;;;;;5036709;28;20480;-75
2021/06/14 12:35:37;;;;;;;2.50;2.30;;;29.70;38.70;;;;;;5036060;28;20478;-75
2021/06/14 12:38:12;;;;;;;2.13;1.93;;;29.60;37.30;;;;;;5035490;28;20973;-75
2021/06/14 12:40:41;;;;;;;3.03;2.40;;;29.60;37.50;;;;;;5035315;28;20438;-75
2021/06/14 12:43:12;;;;;;;2.50;2.30;;;29.50;38.30;;;;;;5035481;28;20535;-74
2021/06/14 12:45:39;;;;;;;2.63;2.33;;;29.40;37.70;;;;;;5035101;28;20466;-74
2021/06/14 12:48:09;;;;;;;2.47;2.20;;;29.30;37.40;;;;;;5035192;28;20446;-74
2021/06/14 12:50:39;;;;;;;2.50;2.17;;;29.10;38.40;;;;;;5035498;28;20485;-74
2021/06/14 12:53:07;;;;;;;2.53;2.33;;;29.00;38.70;;;;;;5035655;28;20471;-75
2021/06/14 12:55:38;;;;;;;2.70;2.50;;;28.90;38.90;;;;;;5034210;28;20444;-74
2021/06/14 12:58:09;;;;;;;2.33;2.13;;;28.80;37.90;;;;;;5033749;28;20464;-75